CheckWX is a tool to help pilots better visualize weather data.  It is not intended as a substitute for an official pre-flight weather briefing.

12:24:04 UTC

OTBH TAF
Al Udeid Air Base Airport
Ar Rayyan, Qatar
TAF AMD OTBH 221012Z 2210/2313 05015G25KT 9999 BKN180 QNH2995INS BECMG 2213/2214 03012G20KT 9000 HZ SCT120 QNH2987INS TEMPO 2216/2221 06015G25KT 8000 -SHRA VCTS SCT100CB BECMG 2302/2303 02015KT 9000 HZ SKC QNH2988INS BECMG 2307/2308 05015G25KT 9000 HZ FEW240 QNH2984INS TX29/2210Z TN19/2300Z

Mar-22@
10:00 UTC

Mar-22 @ 10:00 UTC

Mar-22@
13:00 UTC

Mar-22 @ 13:00 UTC

TAF AMD OTBH 221012Z 2210/2313 05015G25KT 9999 BKN180 QNH2995INS
Wind
  • 050° at 15 KTS
  • {Gusting to 25 KTS
Cloud Levels
  • Broken at 18,000' AGL

Mar-22@
13:00 UTC

Mar-22 @ 13:00 UTC

Mar-23@
02:00 UTC

Mar-23 @ 02:00 UTC

BECMG 2213/2214 03012G20KT 9000 HZ SCT120 QNH2987INS

Becoming

Becoming Conditions expected by Fri, Mar 22, 2019 @ 14:00 UTC

Wind
  • 030° at 12 KTS
  • {Gusting to 20 KTS
Conditions
Haze
Cloud Levels
  • Scattered at 12,000' AGL

Mar-22@
16:00 UTC

Mar-22 @ 16:00 UTC

Mar-22@
21:00 UTC

Mar-22 @ 21:00 UTC

TEMPO 2216/2221 06015G25KT 8000 -SHRA VCTS SCT100CB

Temporary

Temporary Changes expected for less than half the time period

Wind
  • 060° at 15 KTS
  • {Gusting to 25 KTS
Conditions
Light Rain, Area Thunderstorm
Cloud Levels
  • Scattered at 10,000' AGL

Mar-23@
02:00 UTC

Mar-23 @ 02:00 UTC

Mar-23@
07:00 UTC

Mar-23 @ 07:00 UTC

BECMG 2302/2303 02015KT 9000 HZ SKC QNH2988INS

Becoming

Becoming Conditions expected by Sat, Mar 23, 2019 @ 03:00 UTC

Wind
  • 020° at 15 KTS
Conditions
Haze
Cloud Levels
  • Clear skies

Mar-23@
07:00 UTC

Mar-23 @ 07:00 UTC

Mar-23@
13:00 UTC

Mar-23 @ 13:00 UTC

BECMG 2307/2308 05015G25KT 9000 HZ FEW240 QNH2984INS TX29/2210Z TN19/2300Z

Becoming

Becoming Conditions expected by Sat, Mar 23, 2019 @ 08:00 UTC

Wind
  • 050° at 15 KTS
  • {Gusting to 25 KTS
Conditions
Haze
Cloud Levels
  • Few at 24,000' AGL